ADDS TAF Data INFO
IDs: Format: Raw Decoded Include METARs

Data at: 1807 UTC 24 Jun 2018

KLBB 241753Z 21012KT 10SM CLR 37/14 A2979 RMK AO2 SLP020 T03670139 10367 20256 58001

KLBB 241730Z 2418/2518 20011G21KT P6SM FEW150
  FM250200 17015KT P6SM SCT080